Time;durP1;ratioP1;P1;durP2;ratioP2;P2;SDS_P1;SDS_P2;PMS_P1;PMS_P2;Temp;Humidity;BMP_temperature;BMP_pressure;BME280_temperature;BME280_humidity;BME280_pressure;Samples;Min_cycle;Max_cycle;Signal;HPM_P1;HPM_P2
2024/03/26 00:02:37;;;;;;;9.55;5.05;;;;;;;6.42;100.00;99700.72;10456026;28;20025;-72
2024/03/26 00:07:38;;;;;;;9.05;4.72;;;;;;;6.35;100.00;99701.69;10438596;28;20052;-72
2024/03/26 00:12:38;;;;;;;14.35;3.80;;;;;;;6.23;100.00;99699.56;10454106;28;20402;-72
2024/03/26 00:17:39;;;;;;;8.48;4.32;;;;;;;6.22;100.00;99687.19;10471271;28;20056;-72
2024/03/26 00:22:39;;;;;;;9.25;4.20;;;;;;;6.19;100.00;99676.81;10456042;28;20501;-72
2024/03/26 00:27:40;;;;;;;3.47;3.28;;;;;;;6.14;100.00;99663.13;10454996;28;20116;-72
2024/03/26 00:32:41;;;;;;;11.35;4.68;;;;;;;6.13;100.00;99660.66;10454256;28;20053;-72
2024/03/26 00:37:41;;;;;;;6.10;3.13;;;;;;;6.09;100.00;99651.31;10453960;28;20032;-72
2024/03/26 00:42:41;;;;;;;5.43;3.60;;;;;;;6.06;100.00;99639.09;10454923;28;20048;-72
2024/03/26 00:47:42;;;;;;;7.57;4.30;;;;;;;6.01;100.00;99641.56;10453809;28;20437;-71
2024/03/26 00:52:42;;;;;;;3.40;3.10;;;;;;;5.96;100.00;99630.56;10453911;28;20115;-72
2024/03/26 00:57:43;;;;;;;4.80;4.07;;;;;;;6.00;100.00;99621.09;10454636;28;20120;-72
2024/03/26 01:02:43;;;;;;;3.80;3.42;;;;;;;5.97;100.00;99629.56;10454067;28;20400;-71
2024/03/26 01:07:44;;;;;;;9.18;3.78;;;;;;;5.93;100.00;99607.63;10456051;28;20057;-72
2024/03/26 01:12:44;;;;;;;12.38;3.60;;;;;;;5.92;100.00;99605.09;10454385;28;20126;-72
2024/03/26 01:17:45;;;;;;;8.05;4.38;;;;;;;5.89;100.00;99600.97;10454216;28;20055;-72
2024/03/26 01:22:45;;;;;;;8.93;4.70;;;;;;;5.87;100.00;99596.81;10454144;28;20361;-72
2024/03/26 01:27:46;;;;;;;3.33;3.08;;;;;;;5.79;100.00;99582.50;10435829;28;20083;-71
2024/03/26 01:32:46;;;;;;;3.83;3.08;;;;;;;5.84;100.00;99584.63;10454434;28;20442;-72
2024/03/26 01:37:47;;;;;;;4.75;3.83;;;;;;;5.71;100.00;99566.59;10452470;28;20029;-72
2024/03/26 01:42:47;;;;;;;7.80;3.25;;;;;;;5.62;100.00;99553.50;10455394;28;20036;-71
2024/03/26 01:47:48;;;;;;;13.10;4.10;;;;;;;5.62;100.00;99556.19;10427321;28;20025;-72
2024/03/26 01:52:48;;;;;;;5.50;4.43;;;;;;;5.55;100.00;99550.75;10461229;28;20037;-71
2024/03/26 01:57:49;;;;;;;3.28;3.08;;;;;;;5.55;100.00;99540.88;10458762;28;20052;-71
2024/03/26 02:02:49;;;;;;;7.05;4.13;;;;;;;5.47;100.00;99542.88;10458753;28;20055;-71
2024/03/26 02:07:49;;;;;;;7.78;3.50;;;;;;;5.45;100.00;99528.81;10467421;28;20024;-75
2024/03/26 02:12:50;;;;;;;6.65;3.63;;;;;;;5.39;100.00;99522.38;10469784;28;20504;-74
2024/03/26 02:17:50;;;;;;;7.75;4.72;;;;;;;5.34;100.00;99525.66;10468734;28;20029;-75
2024/03/26 02:22:57;;;;;;;7.20;4.80;;;;;;;5.41;100.00;99506.09;10468400;28;20028;-76
2024/03/26 02:27:57;;;;;;;5.95;4.40;;;;;;;5.35;100.00;99496.97;10468278;28;20040;-77
2024/03/26 02:32:58;;;;;;;8.00;4.90;;;;;;;5.25;100.00;99486.59;10467427;28;20036;-75
2024/03/26 02:37:58;;;;;;;8.25;5.10;;;;;;;5.19;100.00;99483.88;10466320;28;20025;-73
2024/03/26 02:43:01;;;;;;;9.30;5.75;;;;;;;5.21;100.00;99474.59;10449564;28;20029;-75
2024/03/26 02:48:04;;;;;;;14.98;5.10;;;;;;;5.24;100.00;99459.97;10466573;28;20043;-76
2024/03/26 02:53:05;;;;;;;8.90;5.45;;;;;;;5.16;100.00;99455.56;10468667;28;20025;-76
2024/03/26 02:58:05;;;;;;;5.35;4.18;;;;;;;5.28;100.00;99462.03;10466368;28;20155;-74
2024/03/26 03:03:05;;;;;;;11.38;4.05;;;;;;;5.26;100.00;99444.47;10467288;28;20029;-75
2024/03/26 03:08:06;;;;;;;5.95;4.32;;;;;;;5.25;100.00;99446.34;10466396;28;20166;-75
2024/03/26 03:13:07;;;;;;;8.88;4.55;;;;;;;5.33;100.00;99432.75;10467202;28;20040;-75
2024/03/26 03:18:07;;;;;;;11.80;5.43;;;;;;;5.23;100.00;99420.72;10466388;28;20025;-76
2024/03/26 03:23:08;;;;;;;5.10;4.60;;;;;;;5.25;100.00;99419.50;10466982;28;20052;-75
2024/03/26 03:28:08;;;;;;;4.18;3.47;;;;;;;5.29;100.00;99406.50;10467252;28;20094;-74
2024/03/26 03:33:08;;;;;;;5.55;4.30;;;;;;;5.25;100.00;99407.94;10466669;28;20068;-75
2024/03/26 03:38:09;;;;;;;6.30;3.03;;;;;;;5.26;100.00;99391.63;10465383;28;20052;-76
2024/03/26 03:43:09;;;;;;;13.82;4.13;;;;;;;5.20;100.00;99387.09;10464484;28;20029;-76
2024/03/26 03:48:10;;;;;;;13.90;4.35;;;;;;;5.17;100.00;99390.16;10464456;28;20036;-74
2024/03/26 03:53:10;;;;;;;12.15;4.20;;;;;;;5.21;100.00;99380.69;10464008;28;20037;-76
2024/03/26 03:58:10;;;;;;;6.13;4.03;;;;;;;5.12;100.00;99387.22;10463798;28;20381;-74
2024/03/26 04:03:11;;;;;;;6.35;4.38;;;;;;;5.17;100.00;99373.19;10462183;28;20037;-76
2024/03/26 04:08:11;;;;;;;5.97;4.30;;;;;;;5.09;100.00;99364.31;10463525;28;20029;-75
2024/03/26 04:13:12;;;;;;;6.97;4.85;;;;;;;4.98;100.00;99354.16;10462230;28;20063;-73
2024/03/26 04:18:12;;;;;;;10.90;4.47;;;;;;;4.99;100.00;99358.50;10447298;28;20028;-75
2024/03/26 04:23:13;;;;;;;8.45;3.95;;;;;;;4.88;100.00;99351.84;10462616;28;20044;-76
2024/03/26 04:28:13;;;;;;;5.30;4.00;;;;;;;4.85;100.00;99343.34;10462182;28;20059;-74
2024/03/26 04:33:13;;;;;;;5.68;3.53;;;;;;;4.85;100.00;99346.88;10478439;28;20037;-72
2024/03/26 04:38:14;;;;;;;7.07;5.18;;;;;;;4.78;100.00;99345.16;10462876;28;20040;-77
2024/03/26 04:43:14;;;;;;;6.00;3.85;;;;;;;4.77;100.00;99340.84;10462394;28;20033;-77
2024/03/26 04:48:15;;;;;;;8.10;4.40;;;;;;;4.66;100.00;99334.19;10462368;28;20033;-74
2024/03/26 04:53:15;;;;;;;10.02;5.20;;;;;;;4.66;100.00;99339.56;10462403;28;20037;-76
2024/03/26 04:58:16;;;;;;;10.43;4.75;;;;;;;4.58;100.00;99335.16;10462989;28;20024;-75
2024/03/26 05:03:16;;;;;;;6.50;4.72;;;;;;;4.48;100.00;99331.19;10463116;28;20476;-74
2024/03/26 05:08:16;;;;;;;4.82;4.43;;;;;;;4.51;100.00;99330.78;10461252;28;20024;-74
2024/03/26 05:13:17;;;;;;;11.60;4.28;;;;;;;4.29;100.00;99325.50;10461273;28;20526;-77
2024/03/26 05:18:17;;;;;;;6.85;4.72;;;;;;;4.38;100.00;99327.00;10465030;28;20162;-76
2024/03/26 05:23:18;;;;;;;8.45;5.10;;;;;;;4.35;100.00;99324.72;10470159;28;20039;-74
2024/03/26 05:28:18;;;;;;;10.07;5.35;;;;;;;4.32;100.00;99321.59;10466362;28;20051;-74
2024/03/26 05:33:19;;;;;;;10.40;4.30;;;;;;;4.34;100.00;99331.09;10465520;28;20044;-76
2024/03/26 05:38:20;;;;;;;9.20;5.68;;;;;;;4.34;100.00;99323.06;10467794;28;20063;-76
2024/03/26 05:43:21;;;;;;;9.95;4.97;;;;;;;4.34;100.00;99317.69;10445626;28;20044;-75
2024/03/26 05:48:21;;;;;;;8.98;6.00;;;;;;;4.46;100.00;99317.13;10463031;28;20473;-70
2024/03/26 05:53:22;;;;;;;7.75;3.95;;;;;;;4.48;100.00;99312.44;10462140;28;20124;-72
2024/03/26 05:58:22;;;;;;;4.65;4.35;;;;;;;4.62;100.00;99306.09;10460107;28;20056;-72
2024/03/26 06:03:22;;;;;;;14.57;5.70;;;;;;;4.73;100.00;99305.56;10460298;28;20036;-71
2024/03/26 06:08:23;;;;;;;11.38;5.47;;;;;;;4.89;100.00;99299.84;10460273;28;20066;-70
2024/03/26 06:13:23;;;;;;;6.53;4.90;;;;;;;5.09;100.00;99296.41;10460287;28;20059;-72
2024/03/26 06:18:24;;;;;;;5.07;4.68;;;;;;;5.36;100.00;99290.09;10461087;28;20125;-74
2024/03/26 06:23:24;;;;;;;5.85;4.75;;;;;;;5.74;100.00;99288.69;10371086;28;20110;-73
2024/03/26 06:28:25;;;;;;;4.63;4.18;;;;;;;5.94;100.00;99280.69;10457965;28;20528;-72
2024/03/26 06:33:26;;;;;;;7.10;5.18;;;;;;;6.15;100.00;99264.31;10458051;28;20028;-72
2024/03/26 06:38:26;;;;;;;10.32;5.43;;;;;;;6.06;100.00;99260.19;10457900;28;20119;-72
2024/03/26 06:43:27;;;;;;;5.78;4.50;;;;;;;6.03;100.00;99249.84;10459106;28;20380;-73
2024/03/26 06:48:27;;;;;;;5.40;4.90;;;;;;;5.96;100.00;99260.59;10458275;28;20111;-74
2024/03/26 06:53:28;;;;;;;3.80;3.42;;;;;;;6.19;100.00;99256.66;10457985;28;20033;-72
2024/03/26 06:58:29;;;;;;;17.75;4.57;;;;;;;6.39;100.00;99244.00;10458944;28;20472;-72
2024/03/26 07:03:29;;;;;;;13.30;6.03;;;;;;;6.81;100.00;99236.41;10456686;28;20466;-73
2024/03/26 07:08:32;;;;;;;8.13;4.10;;;;;;;7.23;100.00;99221.47;10456637;28;20068;-72
2024/03/26 07:13:33;;;;;;;6.45;4.75;;;;;;;7.50;100.00;99233.94;10456564;28;20052;-72
2024/03/26 07:18:33;;;;;;;6.90;3.60;;;;;;;7.75;100.00;99236.66;10456313;28;20040;-74
2024/03/26 07:23:34;;;;;;;11.60;3.65;;;;;;;8.26;100.00;99233.66;10457198;28;20469;-75
2024/03/26 07:28:34;;;;;;;6.05;4.93;;;;;;;8.35;97.37;99226.13;10457545;28;20548;-73
2024/03/26 07:33:34;;;;;;;4.88;4.43;;;;;;;8.60;96.56;99228.78;10456707;28;20159;-73
2024/03/26 07:38:35;;;;;;;4.65;4.25;;;;;;;8.75;94.94;99229.22;10456264;28;20135;-73
2024/03/26 07:43:35;;;;;;;7.07;4.68;;;;;;;9.17;93.25;99213.09;10456880;28;20033;-72
2024/03/26 07:48:36;;;;;;;3.97;3.47;;;;;;;9.30;87.46;99209.38;10456289;28;20029;-74
2024/03/26 07:53:36;;;;;;;4.07;3.60;;;;;;;9.76;86.76;99208.66;10456950;28;20041;-73
2024/03/26 07:58:37;;;;;;;9.75;3.83;;;;;;;10.34;82.03;99207.03;10455110;28;20029;-73
2024/03/26 08:03:37;;;;;;;7.05;3.45;;;;;;;10.90;77.49;99194.63;10456674;28;20032;-75
2024/03/26 08:08:37;;;;;;;10.60;4.05;;;;;;;10.69;78.00;99193.41;10454230;28;20091;-75
2024/03/26 08:13:38;;;;;;;6.72;3.83;;;;;;;10.47;75.27;99185.09;10454203;28;20049;-73
2024/03/26 08:18:38;;;;;;;4.70;4.22;;;;;;;10.55;75.96;99191.19;10456635;28;20416;-74
2024/03/26 08:23:38;;;;;;;7.10;4.07;;;;;;;10.62;75.35;99184.56;10455597;28;20143;-74
2024/03/26 08:28:39;;;;;;;7.60;4.50;;;;;;;10.65;77.74;99170.56;10453973;28;20036;-73
2024/03/26 08:33:39;;;;;;;5.82;3.67;;;;;;;10.42;76.88;99176.06;10455104;28;20036;-75
2024/03/26 08:38:40;;;;;;;4.88;4.07;;;;;;;10.87;77.30;99169.91;10454292;28;20409;-76
2024/03/26 08:43:41;;;;;;;8.63;3.25;;;;;;;11.18;72.60;99176.72;10453341;28;20036;-74
2024/03/26 08:48:41;;;;;;;9.23;3.10;;;;;;;11.11;73.14;99157.09;10455754;28;20033;-72
2024/03/26 08:53:41;;;;;;;4.53;3.92;;;;;;;10.96;70.75;99154.91;10460929;28;20037;-72
2024/03/26 08:58:42;;;;;;;4.43;4.03;;;;;;;10.80;73.29;99148.38;10463286;28;20040;-73
2024/03/26 09:03:42;;;;;;;6.50;4.18;;;;;;;10.59;72.67;99165.28;10463610;28;20088;-74
2024/03/26 09:08:43;;;;;;;6.15;5.00;;;;;;;10.25;74.14;99133.47;10462859;28;20055;-73
2024/03/26 09:13:44;;;;;;;13.27;4.78;;;;;;;10.41;75.25;99131.13;10462413;28;20525;-74
2024/03/26 09:18:44;;;;;;;6.90;3.67;;;;;;;10.29;75.46;99122.22;10463364;28;20025;-72
2024/03/26 09:23:45;;;;;;;8.75;4.15;;;;;;;10.25;76.24;99108.31;10477567;28;20109;-74
2024/03/26 09:28:45;;;;;;;4.68;4.07;;;;;;;10.11;77.16;99110.44;10461849;28;20025;-72
2024/03/26 09:33:45;;;;;;;10.45;4.50;;;;;;;10.44;77.05;99109.00;10460853;28;20067;-73
2024/03/26 09:38:46;;;;;;;7.28;4.32;;;;;;;10.45;74.44;99110.63;10460569;28;20052;-74
2024/03/26 09:43:46;;;;;;;9.88;3.67;;;;;;;10.48;78.80;99100.13;10462980;28;20523;-73
2024/03/26 09:48:47;;;;;;;5.03;3.30;;;;;;;10.76;78.65;99098.50;10459690;28;20044;-73
2024/03/26 09:53:47;;;;;;;4.65;3.42;;;;;;;11.05;74.89;99099.28;10460231;28;20453;-73
2024/03/26 09:58:47;;;;;;;5.57;3.78;;;;;;;11.30;75.70;99089.94;10442344;28;20029;-74
2024/03/26 10:03:48;;;;;;;8.73;4.20;;;;;;;11.10;71.48;99083.13;10458634;28;20033;-74
2024/03/26 10:08:48;;;;;;;6.53;3.20;;;;;;;11.13;72.28;99070.97;10426778;28;20044;-73
2024/03/26 10:13:49;;;;;;;7.10;4.05;;;;;;;11.15;72.95;99071.53;10460822;28;20472;-72
2024/03/26 10:18:49;;;;;;;5.43;4.32;;;;;;;11.31;74.10;99068.00;10459471;28;20036;-73
2024/03/26 10:23:49;;;;;;;5.32;4.47;;;;;;;11.40;70.59;99054.88;10460287;28;20033;-72
2024/03/26 10:28:50;;;;;;;6.00;4.78;;;;;;;11.40;71.21;99046.75;10459784;28;20373;-73
2024/03/26 10:33:50;;;;;;;3.97;3.40;;;;;;;11.38;69.54;99044.25;10458813;28;20024;-75
2024/03/26 10:38:51;;;;;;;4.32;3.45;;;;;;;11.43;71.97;99029.16;10459028;28;20051;-74
2024/03/26 10:43:52;;;;;;;6.50;4.65;;;;;;;11.58;71.13;99026.66;10459129;28;20495;-73
2024/03/26 10:48:52;;;;;;;6.15;5.25;;;;;;;11.50;70.37;99021.69;10460256;28;20044;-74
2024/03/26 10:53:55;;;;;;;5.10;4.47;;;;;;;11.32;70.63;99012.75;10459736;28;20366;-75
2024/03/26 10:58:57;;;;;;;3.83;3.53;;;;;;;11.18;72.38;99011.44;10458186;28;20039;-74
2024/03/26 11:03:57;;;;;;;6.35;4.60;;;;;;;11.35;75.04;99006.00;10459664;28;20122;-74
2024/03/26 11:09:01;;;;;;;5.75;3.78;;;;;;;11.53;73.20;99013.03;10473853;28;20053;-74
2024/03/26 11:14:04;;;;;;;6.53;4.30;;;;;;;11.59;71.28;99003.91;10455987;28;20053;-75
2024/03/26 11:19:20;;;;;;;4.35;3.22;;;;;;;11.53;70.97;99002.19;10457823;28;20449;-74
2024/03/26 11:24:21;;;;;;;11.73;4.83;;;;;;;11.63;70.97;99003.16;10456442;28;20061;-73
2024/03/26 11:29:23;;;;;;;6.72;4.20;;;;;;;11.58;70.79;99010.38;10455328;28;20081;-72
2024/03/26 11:34:24;;;;;;;10.10;3.38;;;;;;;11.62;71.05;99000.69;10458077;28;20025;-72
2024/03/26 11:39:25;;;;;;;3.50;3.25;;;;;;;11.62;70.64;99011.53;10457223;28;20109;-74
2024/03/26 11:44:25;;;;;;;7.13;4.43;;;;;;;11.70;72.73;98996.72;10457243;28;20031;-74
2024/03/26 11:49:26;;;;;;;3.95;3.55;;;;;;;11.77;71.41;98991.94;10471889;28;20134;-74
2024/03/26 11:54:26;;;;;;;4.95;3.20;;;;;;;11.92;71.39;98980.50;10454817;28;20099;-72
2024/03/26 11:59:27;;;;;;;4.63;3.95;;;;;;;12.03;69.94;98979.53;10456182;28;20032;-73
2024/03/26 12:04:27;;;;;;;10.05;4.50;;;;;;;12.21;70.89;98967.50;10456763;28;20190;-73
2024/03/26 12:09:28;;;;;;;4.88;4.40;;;;;;;12.63;68.64;98981.22;10456012;28;20118;-74
2024/03/26 12:14:28;;;;;;;4.65;3.70;;;;;;;12.75;68.00;98953.91;10454068;28;20057;-73
2024/03/26 12:19:29;;;;;;;5.40;3.63;;;;;;;13.20;67.39;98961.56;10455514;28;20037;-74
2024/03/26 12:24:29;;;;;;;7.75;3.95;;;;;;;13.21;64.56;98951.53;10437378;28;20060;-74
2024/03/26 12:29:30;;;;;;;5.55;4.75;;;;;;;13.28;65.22;98938.53;10437109;28;20078;-74
2024/03/26 12:34:32;;;;;;;12.93;3.92;;;;;;;13.45;64.59;98931.00;10455672;28;20036;-74
2024/03/26 12:39:33;;;;;;;7.70;5.20;;;;;;;13.81;64.37;98925.72;10455320;28;20040;-74
2024/03/26 12:44:33;;;;;;;8.35;5.38;;;;;;;14.17;63.75;98914.94;10454871;28;20033;-73
2024/03/26 12:49:33;;;;;;;13.05;5.72;;;;;;;14.18;62.45;98916.56;10454823;28;20061;-73
2024/03/26 12:54:34;;;;;;;4.60;4.20;;;;;;;14.09;61.67;98919.00;10454974;28;20033;-73
2024/03/26 12:59:36;;;;;;;6.28;4.07;;;;;;;13.85;61.79;98907.78;10454771;28;20060;-74
2024/03/26 13:04:36;;;;;;;6.40;4.38;;;;;;;13.68;64.26;98907.97;10454653;28;20122;-73
2024/03/26 13:09:37;;;;;;;6.95;4.65;;;;;;;13.92;65.71;98907.53;10453750;28;20123;-73
2024/03/26 13:14:37;;;;;;;8.02;5.18;;;;;;;13.96;64.84;98892.28;10455022;28;20049;-73
2024/03/26 13:19:38;;;;;;;7.80;5.80;;;;;;;14.04;65.14;98897.22;10453612;28;20036;-73
2024/03/26 13:24:38;;;;;;;5.78;4.93;;;;;;;13.94;63.75;98894.44;10453490;28;20057;-74
2024/03/26 13:29:38;;;;;;;4.55;4.15;;;;;;;13.78;66.19;98888.16;10454619;28;20483;-73
2024/03/26 13:34:39;;;;;;;4.78;4.07;;;;;;;13.57;64.22;98873.69;10453630;28;20025;-73
2024/03/26 13:39:40;;;;;;;4.57;4.28;;;;;;;13.39;65.37;98874.16;10458627;28;20186;-74
2024/03/26 13:44:41;;;;;;;11.68;5.13;;;;;;;13.35;65.96;98860.28;10460340;28;20400;-75
2024/03/26 13:49:44;;;;;;;5.35;4.25;;;;;;;13.20;66.79;98850.13;10461838;28;20061;-76
2024/03/26 13:54:44;;;;;;;10.38;5.93;;;;;;;13.16;69.66;98838.16;10461801;28;20040;-74
2024/03/26 13:59:45;;;;;;;9.10;4.20;;;;;;;13.33;67.94;98840.69;10427142;28;20475;-74
2024/03/26 14:04:45;;;;;;;8.80;5.05;;;;;;;13.46;66.53;98845.66;10462817;28;20345;-74
2024/03/26 14:09:45;;;;;;;7.72;4.70;;;;;;;13.32;66.53;98846.41;10460195;28;20500;-74
2024/03/26 14:14:46;;;;;;;5.25;4.75;;;;;;;13.35;66.54;98826.84;10460218;28;20079;-75
2024/03/26 14:19:46;;;;;;;5.15;4.70;;;;;;;13.28;67.34;98818.13;10459869;28;20025;-74
2024/03/26 14:24:47;;;;;;;7.28;4.63;;;;;;;13.35;68.42;98815.97;10460018;28;20033;-74
2024/03/26 14:29:47;;;;;;;5.90;4.25;;;;;;;13.16;67.80;98800.09;10459715;28;20033;-73
2024/03/26 14:34:47;;;;;;;6.25;5.47;;;;;;;13.24;69.51;98796.03;10458279;28;20033;-73
2024/03/26 14:39:48;;;;;;;8.43;5.25;;;;;;;13.32;70.09;98792.03;10457878;28;20155;-73
2024/03/26 14:44:49;;;;;;;6.10;5.22;;;;;;;13.35;69.67;98791.50;10458898;28;20037;-74
2024/03/26 14:49:50;;;;;;;10.45;4.60;;;;;;;13.18;69.76;98781.63;10458268;28;20239;-74
2024/03/26 14:54:50;;;;;;;9.43;4.50;;;;;;;13.19;72.29;98769.69;10459534;28;20029;-74
2024/03/26 14:59:51;;;;;;;5.05;4.35;;;;;;;12.90;73.28;98772.00;10458373;28;20050;-72
2024/03/26 15:04:51;;;;;;;8.65;4.43;;;;;;;12.79;72.86;98763.00;10457381;28;20528;-75
2024/03/26 15:09:52;;;;;;;5.95;4.45;;;;;;;12.68;74.25;98755.88;10457057;28;20029;-75
2024/03/26 15:14:52;;;;;;;6.93;4.80;;;;;;;12.51;75.51;98755.25;10456667;28;20095;-75
2024/03/26 15:19:53;;;;;;;3.83;3.53;;;;;;;12.50;77.64;98751.69;10460754;28;20040;-73
2024/03/26 15:24:53;;;;;;;16.52;5.28;;;;;;;12.53;77.63;98744.94;10458456;28;20048;-75
2024/03/26 15:35:13;;;;;;;11.07;5.80;;;;;;;13.02;78.89;98736.47;10457271;28;20041;-73
2024/03/26 15:40:14;;;;;;;10.65;4.47;;;;;;;13.02;79.38;98731.84;10457988;28;20051;-72
2024/03/26 15:45:14;;;;;;;7.60;5.53;;;;;;;12.90;79.99;98730.44;10459314;28;20033;-74
2024/03/26 15:50:15;;;;;;;7.97;5.70;;;;;;;12.72;81.18;98726.28;10457511;28;20025;-74
2024/03/26 15:55:15;;;;;;;5.25;4.43;;;;;;;12.62;81.61;98727.06;10456861;28;20123;-73
2024/03/26 16:00:16;;;;;;;8.68;4.88;;;;;;;12.66;81.81;98713.78;10454382;28;20029;-75
2024/03/26 16:05:16;;;;;;;9.35;5.28;;;;;;;12.61;85.68;98711.06;10454999;28;20037;-73
2024/03/26 16:10:17;;;;;;;5.50;4.10;;;;;;;12.65;87.27;98699.38;10455647;28;20033;-72
2024/03/26 16:15:19;;;;;;;6.53;3.63;;;;;;;12.46;88.34;98692.78;10454464;28;20143;-72
2024/03/26 16:20:19;;;;;;;4.55;4.18;;;;;;;12.40;89.62;98683.78;10454852;28;20511;-73
2024/03/26 16:25:20;;;;;;;5.97;5.28;;;;;;;12.37;88.89;98688.94;10455389;28;20065;-75
2024/03/26 16:30:20;;;;;;;7.35;4.07;;;;;;;12.28;90.79;98670.44;10454869;28;20028;-74
2024/03/26 16:35:21;;;;;;;6.97;5.28;;;;;;;12.26;92.74;98675.31;10455197;28;20090;-73
2024/03/26 16:40:21;;;;;;;8.70;4.95;;;;;;;12.17;94.36;98662.50;10455697;28;20456;-74
2024/03/26 16:45:21;;;;;;;8.90;4.95;;;;;;;12.04;95.51;98663.78;10455343;28;20036;-73
2024/03/26 16:50:22;;;;;;;16.25;5.05;;;;;;;11.75;98.46;98661.38;10454659;28;20032;-72
2024/03/26 16:55:22;;;;;;;5.38;4.88;;;;;;;11.79;99.42;98648.94;10469775;28;20377;-73
2024/03/26 17:00:23;;;;;;;9.18;4.80;;;;;;;11.86;100.00;98651.44;10454731;28;20032;-73
2024/03/26 17:05:23;;;;;;;7.13;5.65;;;;;;;11.92;100.00;98663.16;10454505;28;20043;-73
2024/03/26 17:10:23;;;;;;;6.65;5.20;;;;;;;11.89;100.00;98653.63;10454955;28;20032;-72
2024/03/26 17:15:25;;;;;;;7.68;4.38;;;;;;;11.74;100.00;98646.19;10463169;28;20051;-74
2024/03/26 17:20:25;;;;;;;6.28;4.97;;;;;;;11.75;100.00;98652.44;10460676;28;20426;-75
2024/03/26 17:25:26;;;;;;;6.75;4.53;;;;;;;11.72;100.00;98653.78;10460880;28;20039;-72
2024/03/26 17:30:27;;;;;;;6.38;5.75;;;;;;;11.59;100.00;98643.38;10462090;28;20053;-74
2024/03/26 17:35:27;;;;;;;6.38;5.10;;;;;;;11.38;100.00;98637.78;10460371;28;20490;-74
2024/03/26 17:40:27;;;;;;;7.25;6.57;;;;;;;11.27;100.00;98638.78;10463659;28;20029;-73
2024/03/26 17:45:28;;;;;;;6.40;5.80;;;;;;;11.14;100.00;98631.06;10460811;28;20025;-73
2024/03/26 17:50:28;;;;;;;11.93;7.13;;;;;;;11.13;100.00;98638.34;10461464;28;20036;-75
2024/03/26 17:55:29;;;;;;;11.90;7.03;;;;;;;11.12;100.00;98619.66;10460936;28;20029;-73
2024/03/26 18:00:29;;;;;;;13.25;6.55;;;;;;;11.07;100.00;98633.16;10459293;28;20056;-73
2024/03/26 18:05:36;;;;;;;18.35;6.65;;;;;;;10.99;100.00;98620.91;10461302;28;20129;-73
2024/03/26 18:10:36;;;;;;;9.75;5.72;;;;;;;10.96;100.00;98615.19;10461598;28;20033;-74
2024/03/26 18:15:37;;;;;;;10.10;7.57;;;;;;;10.93;100.00;98608.38;10459433;28;20479;-74
2024/03/26 18:20:40;;;;;;;6.63;5.95;;;;;;;10.88;100.00;98616.44;10460639;28;20029;-74
2024/03/26 18:25:40;;;;;;;10.68;6.35;;;;;;;10.89;100.00;98613.50;10458631;28;20124;-74
2024/03/26 18:30:41;;;;;;;10.00;5.82;;;;;;;10.89;100.00;98610.78;10459700;28;20357;-73
2024/03/26 18:35:41;;;;;;;7.40;6.03;;;;;;;10.99;100.00;98606.56;10463861;28;20055;-74
2024/03/26 18:40:41;;;;;;;10.30;6.80;;;;;;;11.06;100.00;98602.53;10469707;28;20048;-73
2024/03/26 18:45:42;;;;;;;10.63;7.00;;;;;;;10.96;100.00;98605.16;10464929;28;20048;-73
2024/03/26 18:50:42;;;;;;;9.40;6.90;;;;;;;10.95;100.00;98603.53;10460886;28;20105;-72
2024/03/26 18:55:42;;;;;;;9.85;7.55;;;;;;;11.00;100.00;98602.75;10458229;28;20048;-72
2024/03/26 19:00:43;;;;;;;9.30;7.00;;;;;;;11.01;100.00;98596.25;10458390;28;20119;-74
2024/03/26 19:05:43;;;;;;;8.05;6.95;;;;;;;10.98;100.00;98584.06;10459883;28;20360;-72
2024/03/26 19:10:44;;;;;;;9.60;6.55;;;;;;;10.89;100.00;98580.19;10460838;28;20036;-74
2024/03/26 19:15:44;;;;;;;8.75;7.50;;;;;;;10.71;100.00;98584.06;10458265;28;20416;-74
2024/03/26 19:20:52;;;;;;;15.25;7.20;;;;;;;10.59;100.00;98591.50;10457494;28;20111;-74
2024/03/26 19:25:59;;;;;;;14.77;8.40;;;;;;;10.64;100.00;98588.88;10456543;28;20103;-71
2024/03/26 19:31:02;;;;;;;16.00;8.85;;;;;;;10.70;100.00;98590.56;10456262;28;20025;-73
2024/03/26 19:36:07;;;;;;;12.02;8.27;;;;;;;10.70;100.00;98577.03;10455750;28;20032;-73
2024/03/26 19:41:08;;;;;;;15.23;9.63;;;;;;;10.76;100.00;98576.00;10455117;28;20028;-72
2024/03/26 19:46:09;;;;;;;12.13;7.13;;;;;;;10.79;100.00;98582.81;10439390;28;20399;-73
2024/03/26 19:51:10;;;;;;;16.30;8.98;;;;;;;10.85;100.00;98584.50;10455778;28;20028;-74
2024/03/26 19:56:12;;;;;;;9.77;6.70;;;;;;;10.93;100.00;98581.31;10455903;28;20037;-75
2024/03/26 20:01:12;;;;;;;11.35;7.88;;;;;;;10.86;100.00;98576.09;10456982;28;20032;-74
2024/03/26 20:06:12;;;;;;;10.70;7.63;;;;;;;10.69;100.00;98581.63;10459174;28;20041;-76
2024/03/26 20:11:17;;;;;;;9.88;8.68;;;;;;;10.51;100.00;98573.03;10456607;28;20049;-75
2024/03/26 20:16:18;;;;;;;15.80;9.07;;;;;;;10.42;100.00;98578.88;10457331;28;20048;-73
2024/03/26 20:21:18;;;;;;;14.30;9.98;;;;;;;10.22;100.00;98578.63;10471574;28;20032;-72
2024/03/26 20:26:19;;;;;;;17.27;10.52;;;;;;;10.30;100.00;98564.66;10439468;28;20036;-75
2024/03/26 20:31:21;;;;;;;22.05;8.80;;;;;;;10.34;100.00;98546.88;10456616;28;20128;-74
2024/03/26 20:36:21;;;;;;;17.90;9.23;;;;;;;10.35;100.00;98537.69;10455376;28;20037;-73
2024/03/26 20:41:22;;;;;;;11.48;10.32;;;;;;;10.40;100.00;98535.06;10454787;28;20045;-73
2024/03/26 20:46:22;;;;;;;15.57;9.70;;;;;;;10.48;100.00;98528.34;10456407;28;20064;-73
2024/03/26 20:51:24;;;;;;;21.42;10.48;;;;;;;10.39;100.00;98519.88;10464539;28;20036;-75
2024/03/26 20:56:25;;;;;;;11.43;8.82;;;;;;;10.20;100.00;98532.06;10463988;28;20033;-74
2024/03/26 21:01:25;;;;;;;10.85;9.32;;;;;;;10.12;100.00;98529.84;10479032;28;20035;-74
2024/03/26 21:06:27;;;;;;;18.35;10.70;;;;;;;10.11;100.00;98515.47;10463767;28;20051;-74
2024/03/26 21:11:27;;;;;;;9.63;8.63;;;;;;;10.01;100.00;98510.75;10463276;28;20041;-73
2024/03/26 21:16:27;;;;;;;11.55;10.05;;;;;;;9.90;100.00;98498.19;10463409;28;20029;-74
2024/03/26 21:21:29;;;;;;;17.67;11.20;;;;;;;9.95;100.00;98494.72;10462262;28;20029;-73
2024/03/26 21:26:29;;;;;;;16.40;9.23;;;;;;;9.90;100.00;98481.97;10464834;28;20048;-73
2024/03/26 21:31:30;;;;;;;12.77;9.95;;;;;;;9.92;100.00;98479.84;10463420;28;20449;-73
2024/03/26 21:36:30;;;;;;;14.15;10.75;;;;;;;9.99;100.00;98474.25;10462127;28;20037;-73
2024/03/26 21:41:31;;;;;;;21.83;9.98;;;;;;;10.03;100.00;98472.66;10472069;28;20472;-74
2024/03/26 21:46:31;;;;;;;15.88;9.38;;;;;;;10.12;100.00;98456.81;10471052;28;20033;-74
2024/03/26 21:51:31;;;;;;;16.83;10.90;;;;;;;10.17;100.00;98454.97;10471339;28;20033;-75
2024/03/26 21:56:32;;;;;;;12.60;10.38;;;;;;;10.13;100.00;98447.63;10470326;28;20466;-74
2024/03/26 22:01:32;;;;;;;16.40;11.45;;;;;;;10.14;100.00;98450.06;10470059;28;20029;-74
2024/03/26 22:06:33;;;;;;;13.80;9.77;;;;;;;10.11;100.00;98438.94;10470168;28;20033;-73
2024/03/26 22:11:33;;;;;;;17.45;11.35;;;;;;;10.06;100.00;98437.00;10468481;28;20057;-73
2024/03/26 22:16:33;;;;;;;12.77;10.25;;;;;;;10.17;100.00;98432.50;10472720;28;20028;-75
2024/03/26 22:21:34;;;;;;;18.80;11.05;;;;;;;10.22;100.00;98436.09;10471527;28;20021;-75
2024/03/26 22:26:35;;;;;;;12.50;10.32;;;;;;;10.26;100.00;98433.72;10469154;28;20388;-74
2024/03/26 22:31:36;;;;;;;17.25;12.25;;;;;;;10.31;100.00;98420.25;10472075;28;20037;-73
2024/03/26 22:36:36;;;;;;;14.90;10.98;;;;;;;10.27;100.00;98412.88;10472419;28;20493;-73
2024/03/26 22:41:37;;;;;;;18.05;11.25;;;;;;;10.41;100.00;98423.03;10466242;28;20021;-75
2024/03/26 22:46:37;;;;;;;20.98;9.57;;;;;;;10.48;100.00;98415.53;10462744;28;20045;-73
2024/03/26 22:51:37;;;;;;;14.88;10.40;;;;;;;10.54;100.00;98410.16;10463690;28;20033;-75
2024/03/26 22:56:38;;;;;;;19.75;10.63;;;;;;;10.59;100.00;98412.91;10465027;28;20488;-75
2024/03/26 23:01:39;;;;;;;17.95;9.93;;;;;;;10.66;100.00;98408.09;10462551;28;20029;-75
2024/03/26 23:06:39;;;;;;;12.43;9.02;;;;;;;10.66;100.00;98400.78;10443239;28;20086;-73
2024/03/26 23:11:40;;;;;;;9.85;7.03;;;;;;;10.72;100.00;98390.81;10460426;28;20052;-73